Time;durP1;ratioP1;P1;durP2;ratioP2;P2;SDS_P1;SDS_P2;PMS_P1;PMS_P2;Temp;Humidity;BMP_temperature;BMP_pressure;BME280_temperature;BME280_humidity;BME280_pressure;Samples;Min_cycle;Max_cycle;Signal;HPM_P1;HPM_P2
2023/10/15 00:02:58;;;;;;;10.07;7.82;;;21.00;79.20;;;;;;10829118;33;20050;-70
2023/10/15 00:09:01;;;;;;;14.98;11.32;;;21.00;79.30;;;;;;10829836;33;20326;-70
2023/10/15 00:15:07;;;;;;;11.23;9.13;;;20.90;79.20;;;;;;10828808;33;20047;-70
2023/10/15 00:21:12;;;;;;;18.70;14.00;;;20.90;79.40;;;;;;10830016;33;20467;-70
2023/10/15 00:27:16;;;;;;;15.82;11.98;;;20.90;79.50;;;;;;10826837;33;20366;-69
2023/10/15 00:33:19;;;;;;;17.15;14.73;;;20.80;79.60;;;;;;10827777;32;20051;-70
2023/10/15 00:39:21;;;;;;;15.52;12.10;;;20.80;79.60;;;;;;10828352;33;20024;-70
2023/10/15 00:45:24;;;;;;;16.85;12.85;;;20.80;79.60;;;;;;10829357;33;20019;-70
2023/10/15 00:51:26;;;;;;;18.08;13.52;;;20.70;79.70;;;;;;10814125;33;20066;-70
2023/10/15 00:57:41;;;;;;;15.48;12.20;;;20.60;79.80;;;;;;10827693;32;20021;-70
2023/10/15 01:03:49;;;;;;;20.20;14.40;;;20.60;79.90;;;;;;10827556;33;20028;-70
2023/10/15 01:09:51;;;;;;;17.87;14.95;;;20.50;79.90;;;;;;10827349;33;20028;-70
2023/10/15 01:15:59;;;;;;;17.52;14.63;;;20.50;79.90;;;;;;10827899;33;20020;-70
2023/10/15 01:22:17;;;;;;;26.52;19.23;;;20.40;80.00;;;;;;10827665;33;20322;-70
2023/10/15 01:28:21;;;;;;;22.83;18.30;;;20.30;80.10;;;;;;10826924;33;20090;-70
2023/10/15 01:34:23;;;;;;;22.48;18.83;;;20.30;80.20;;;;;;10826607;33;20106;-69
2023/10/15 01:40:40;;;;;;;17.60;13.75;;;20.30;80.40;;;;;;10827749;33;20028;-70
2023/10/15 01:52:47;;;;;;;14.95;12.80;;;20.20;80.40;;;;;;10826209;33;20031;-70
2023/10/15 01:58:52;;;;;;;20.12;16.60;;;20.20;80.50;;;;;;10827241;33;20016;-70
2023/10/15 02:04:57;;;;;;;15.50;12.65;;;20.10;80.40;;;;;;10826365;33;20016;-70
2023/10/15 02:11:04;;;;;;;22.27;17.02;;;20.00;80.50;;;;;;10825660;33;20050;-70
2023/10/15 02:17:06;;;;;;;19.20;15.80;;;19.90;80.50;;;;;;10825476;33;20015;-70
2023/10/15 02:23:08;;;;;;;21.70;16.05;;;20.00;80.70;;;;;;10825969;33;20391;-70
2023/10/15 02:35:39;;;;;;;22.45;16.45;;;20.00;80.70;;;;;;10826223;33;20024;-70
2023/10/15 02:41:41;;;;;;;21.83;18.40;;;20.00;80.60;;;;;;10824867;33;20020;-70
2023/10/15 02:47:48;;;;;;;22.08;19.70;;;19.90;80.60;;;;;;10825392;33;20020;-70
2023/10/15 02:54:09;;;;;;;22.45;19.67;;;19.90;80.90;;;;;;10824524;33;20059;-70
2023/10/15 03:00:18;;;;;;;20.55;18.35;;;19.90;80.80;;;;;;10825594;33;20409;-70
2023/10/15 03:06:31;;;;;;;20.23;17.67;;;19.90;81.00;;;;;;10824881;33;20349;-70
2023/10/15 03:12:34;;;;;;;18.73;16.58;;;19.90;81.00;;;;;;10824100;33;20024;-70
2023/10/15 03:18:37;;;;;;;18.75;14.55;;;19.80;81.10;;;;;;10811422;33;20020;-70
2023/10/15 03:24:44;;;;;;;23.42;20.08;;;19.80;81.10;;;;;;10823819;33;20195;-70
2023/10/15 03:30:46;;;;;;;20.88;17.23;;;19.70;81.00;;;;;;10823648;33;20334;-69
2023/10/15 03:36:50;;;;;;;23.20;19.33;;;19.60;81.10;;;;;;10823588;33;20058;-69
2023/10/15 03:42:52;;;;;;;17.92;15.23;;;19.60;81.10;;;;;;10809853;33;20040;-70
2023/10/15 03:48:54;;;;;;;26.02;20.23;;;19.60;81.10;;;;;;10823665;33;20020;-70
2023/10/15 03:54:57;;;;;;;21.90;18.50;;;19.60;81.10;;;;;;10824178;33;20042;-70
2023/10/15 04:01:16;;;;;;;18.70;15.70;;;19.60;81.30;;;;;;10819039;33;20069;-70
2023/10/15 04:07:19;;;;;;;29.00;20.90;;;19.50;81.40;;;;;;10825208;32;20047;-70
2023/10/15 04:13:21;;;;;;;16.67;13.20;;;19.50;81.50;;;;;;10830201;33;20020;-69
2023/10/15 04:19:29;;;;;;;19.90;16.17;;;19.50;81.50;;;;;;10828920;33;20024;-70
2023/10/15 04:25:36;;;;;;;19.73;15.97;;;19.50;81.80;;;;;;10815397;33;20036;-70
2023/10/15 04:31:39;;;;;;;17.75;15.82;;;19.40;82.30;;;;;;10828526;33;20016;-70
2023/10/15 04:37:48;;;;;;;19.70;16.50;;;19.30;82.60;;;;;;10828417;33;20047;-69
2023/10/15 04:43:50;;;;;;;16.62;14.85;;;19.30;82.50;;;;;;10828158;33;20101;-70
2023/10/15 04:49:57;;;;;;;20.50;16.65;;;19.30;82.40;;;;;;10814921;33;20428;-70
2023/10/15 04:56:00;;;;;;;18.80;15.57;;;19.30;82.20;;;;;;10815327;33;20046;-69
2023/10/15 05:02:03;;;;;;;17.52;14.20;;;19.30;82.20;;;;;;10827687;33;20016;-69
2023/10/15 05:08:10;;;;;;;19.98;17.17;;;19.30;82.30;;;;;;10828137;33;20038;-70
2023/10/15 05:14:13;;;;;;;15.73;14.10;;;19.30;82.50;;;;;;10827337;33;20050;-69
2023/10/15 05:20:15;;;;;;;21.10;17.02;;;19.30;82.50;;;;;;10826861;32;20020;-69
2023/10/15 05:26:19;;;;;;;17.48;13.73;;;19.30;82.40;;;;;;10827268;33;20329;-69
2023/10/15 05:32:22;;;;;;;23.30;18.73;;;19.30;82.50;;;;;;10827937;33;20028;-69
2023/10/15 05:38:27;;;;;;;26.20;20.98;;;19.30;82.80;;;;;;10827272;33;20390;-69
2023/10/15 05:44:29;;;;;;;16.37;14.57;;;19.40;82.70;;;;;;10827611;33;20017;-70
2023/10/15 05:50:32;;;;;;;19.05;17.02;;;19.30;82.60;;;;;;10824164;33;20050;-70
2023/10/15 05:56:34;;;;;;;23.70;20.42;;;19.30;82.60;;;;;;10826055;33;20028;-70
2023/10/15 06:02:36;;;;;;;22.15;19.45;;;19.30;82.60;;;;;;10826573;33;20296;-69
2023/10/15 06:08:38;;;;;;;21.35;18.87;;;19.40;82.50;;;;;;10826279;33;20429;-69
2023/10/15 06:14:40;;;;;;;24.15;17.58;;;19.40;82.40;;;;;;10825518;33;20128;-70
2023/10/15 06:20:47;;;;;;;21.02;18.17;;;19.40;82.40;;;;;;10825584;33;20042;-70
2023/10/15 06:26:49;;;;;;;23.45;18.80;;;19.40;82.40;;;;;;10826354;33;20024;-70
2023/10/15 06:32:52;;;;;;;28.85;21.60;;;19.40;82.50;;;;;;10824989;32;20322;-70
2023/10/15 06:38:56;;;;;;;34.10;15.60;;;19.40;82.40;;;;;;10811599;33;20036;-70
2023/10/15 06:44:58;;;;;;;23.80;20.00;;;19.30;82.40;;;;;;10825267;32;20054;-70
2023/10/15 06:51:07;;;;;;;18.30;15.18;;;19.30;82.60;;;;;;10644382;27;7184396;-70
2023/10/15 06:57:09;;;;;;;21.20;17.80;;;19.40;82.50;;;;;;10835792;32;20039;-70
2023/10/15 07:03:15;;;;;;;23.55;16.42;;;19.50;82.50;;;;;;10847682;32;20047;-70
2023/10/15 07:09:19;;;;;;;21.52;19.00;;;19.50;82.50;;;;;;10861227;32;20042;-70
2023/10/15 07:15:21;;;;;;;21.42;17.85;;;19.50;82.50;;;;;;10860844;32;20059;-70
2023/10/15 07:21:23;;;;;;;18.90;15.80;;;19.50;82.50;;;;;;10861590;32;20333;-70
2023/10/15 07:27:25;;;;;;;17.90;14.30;;;19.50;82.40;;;;;;10862574;32;20019;-70
2023/10/15 07:33:27;;;;;;;21.15;17.95;;;19.50;82.40;;;;;;10861284;32;20345;-70
2023/10/15 07:39:31;;;;;;;19.02;17.02;;;19.60;82.50;;;;;;10847961;32;20046;-70
2023/10/15 07:45:33;;;;;;;21.12;17.30;;;19.70;82.20;;;;;;10866042;32;20020;-70
2023/10/15 07:52:24;;;;;;;20.62;15.48;;;19.70;82.20;;;;;;10867356;32;20027;-71
2023/10/15 07:58:26;;;;;;;16.52;13.60;;;19.80;82.20;;;;;;10853918;32;20034;-70
2023/10/15 08:04:29;;;;;;;14.82;13.27;;;19.80;82.50;;;;;;10853015;32;20051;-70
2023/10/15 08:10:33;;;;;;;18.52;14.70;;;20.00;82.30;;;;;;10865992;32;20436;-70
2023/10/15 08:16:35;;;;;;;15.10;11.93;;;20.10;82.30;;;;;;10865367;32;20031;-70
2023/10/15 08:22:40;;;;;;;14.73;11.80;;;20.20;82.20;;;;;;10850599;32;20023;-70
2023/10/15 08:28:42;;;;;;;12.20;10.40;;;20.30;81.90;;;;;;10866334;32;20047;-70
2023/10/15 08:34:45;;;;;;;12.98;9.50;;;20.30;82.20;;;;;;10860852;32;20032;-71
2023/10/15 08:40:49;;;;;;;12.93;9.90;;;20.50;82.00;;;;;;10830746;32;20070;-70
2023/10/15 08:46:52;;;;;;;12.75;10.50;;;20.60;81.80;;;;;;10829309;32;20081;-70
2023/10/15 08:52:56;;;;;;;11.18;8.57;;;20.80;81.40;;;;;;10833313;32;20036;-70
2023/10/15 08:58:58;;;;;;;12.65;9.10;;;20.90;81.20;;;;;;10843048;32;20066;-70
2023/10/15 09:05:01;;;;;;;8.73;5.25;;;21.10;80.80;;;;;;10849706;32;20063;-71
2023/10/15 09:11:04;;;;;;;11.12;8.45;;;21.30;80.70;;;;;;10828552;32;20405;-70
2023/10/15 09:17:09;;;;;;;15.82;8.30;;;21.50;80.90;;;;;;10829225;32;20054;-72
2023/10/15 09:23:11;;;;;;;12.02;8.77;;;21.60;80.60;;;;;;10827236;33;20012;-70
2023/10/15 09:29:30;;;;;;;12.77;9.60;;;21.70;80.40;;;;;;10860215;32;20023;-70
2023/10/15 09:35:38;;;;;;;12.80;9.25;;;21.80;80.10;;;;;;10842809;32;20058;-70
2023/10/15 09:41:41;;;;;;;12.02;9.55;;;21.90;79.80;;;;;;10850087;32;20059;-69
2023/10/15 09:47:48;;;;;;;12.20;8.57;;;22.00;79.70;;;;;;10900424;32;20023;-71
2023/10/15 09:53:52;;;;;;;17.10;12.10;;;22.20;79.40;;;;;;10897725;32;20059;-72
2023/10/15 09:59:56;;;;;;;12.37;10.43;;;22.30;79.00;;;;;;10901415;32;20019;-70
2023/10/15 10:06:15;;;;;;;16.37;11.23;;;22.30;78.90;;;;;;10829008;32;20036;-72
2023/10/15 10:12:39;;;;;;;12.23;10.00;;;22.30;78.70;;;;;;10826923;33;20024;-72
2023/10/15 10:18:42;;;;;;;14.80;10.68;;;22.50;78.60;;;;;;10825485;33;20016;-70
2023/10/15 10:24:45;;;;;;;13.82;10.15;;;22.40;78.50;;;;;;10825318;33;20020;-70
2023/10/15 10:31:00;;;;;;;14.40;10.98;;;22.50;78.50;;;;;;10825239;33;20028;-70
2023/10/15 10:37:03;;;;;;;13.27;9.90;;;22.60;78.50;;;;;;10823562;33;20024;-71
2023/10/15 10:43:16;;;;;;;12.07;8.63;;;22.60;78.40;;;;;;10824905;33;20050;-70
2023/10/15 10:49:27;;;;;;;12.18;8.50;;;22.60;78.20;;;;;;10825223;33;20020;-72
2023/10/15 10:55:34;;;;;;;15.65;11.10;;;22.80;78.00;;;;;;10825119;33;20398;-72
2023/10/15 11:01:38;;;;;;;11.23;8.82;;;23.00;77.70;;;;;;10825107;33;20016;-69
2023/10/15 11:07:40;;;;;;;15.07;10.25;;;23.30;77.50;;;;;;10824844;33;20088;-70
2023/10/15 11:13:43;;;;;;;12.90;10.32;;;23.30;77.70;;;;;;10824082;33;20024;-71
2023/10/15 11:19:45;;;;;;;14.10;11.30;;;23.10;78.20;;;;;;10828943;32;20330;-71
2023/10/15 11:25:47;;;;;;;13.38;9.80;;;23.10;78.30;;;;;;10818207;33;20028;-71
2023/10/15 11:31:53;;;;;;;12.95;8.02;;;23.10;78.30;;;;;;10831456;33;20050;-71
2023/10/15 11:37:56;;;;;;;20.27;10.02;;;23.10;78.00;;;;;;10825685;32;20036;-72
2023/10/15 11:44:08;;;;;;;10.07;6.97;;;23.00;78.40;;;;;;10866523;32;20046;-69
2023/10/15 11:50:14;;;;;;;8.10;3.92;;;22.80;79.70;;;;;;10827781;32;20050;-70
2023/10/15 11:56:20;;;;;;;5.10;2.60;;;22.40;80.80;;;;;;10825241;33;20307;-72
2023/10/15 12:02:22;;;;;;;9.18;2.03;;;22.10;80.90;;;;;;10825045;33;20027;-70
2023/10/15 12:08:26;;;;;;;1.92;1.23;;;21.80;80.20;;;;;;10825469;33;20476;-69
2023/10/15 12:14:29;;;;;;;3.67;1.00;;;21.70;80.20;;;;;;10824595;33;20058;-71
2023/10/15 12:20:31;;;;;;;2.33;1.25;;;21.50;79.60;;;;;;10823409;33;20097;-70
2023/10/15 12:26:34;;;;;;;2.45;1.50;;;21.30;79.10;;;;;;10829129;32;20016;-69
2023/10/15 12:32:37;;;;;;;2.28;1.05;;;21.30;78.50;;;;;;10845483;32;20044;-72
2023/10/15 12:38:39;;;;;;;5.78;1.27;;;21.20;78.10;;;;;;10847449;32;20031;-69
2023/10/15 12:44:44;;;;;;;12.52;1.48;;;21.00;77.90;;;;;;10858980;32;20054;-71
2023/10/15 12:50:47;;;;;;;5.07;1.30;;;20.90;77.60;;;;;;10847545;32;20088;-71
2023/10/15 12:56:49;;;;;;;6.05;1.20;;;20.80;77.50;;;;;;10861273;32;20028;-72
2023/10/15 13:02:53;;;;;;;1.67;1.02;;;20.80;77.10;;;;;;10846630;32;20063;-71
2023/10/15 13:08:56;;;;;;;5.50;1.17;;;20.70;76.60;;;;;;10860661;32;20035;-71
2023/10/15 13:14:58;;;;;;;1.80;0.77;;;20.60;76.60;;;;;;10860147;32;20345;-71
2023/10/15 13:21:08;;;;;;;2.30;1.15;;;20.60;76.80;;;;;;10864183;32;20044;-74
2023/10/15 13:27:10;;;;;;;1.23;0.70;;;20.50;76.60;;;;;;10863417;32;20016;-71
2023/10/15 13:33:16;;;;;;;0.80;0.70;;;20.50;77.70;;;;;;10865070;32;20027;-72
2023/10/15 13:39:18;;;;;;;1.10;0.60;;;20.70;77.60;;;;;;10863528;32;20020;-71
2023/10/15 13:45:23;;;;;;;3.00;1.05;;;20.70;76.80;;;;;;10851059;32;20413;-71
2023/10/15 13:51:26;;;;;;;0.68;0.50;;;20.60;76.30;;;;;;10894088;32;20027;-73
2023/10/15 13:58:02;;;;;;;0.60;0.60;;;20.60;76.40;;;;;;10891313;32;20096;-71
2023/10/15 14:04:07;;;;;;;1.12;0.82;;;20.70;78.10;;;;;;10901495;32;20045;-71
2023/10/15 14:10:22;;;;;;;4.53;1.05;;;20.60;77.80;;;;;;10828638;32;20073;-70
2023/10/15 14:16:24;;;;;;;0.65;0.65;;;20.50;77.10;;;;;;10825998;33;20330;-71
2023/10/15 14:22:27;;;;;;;0.73;0.60;;;20.30;76.10;;;;;;10891822;32;20023;-70
2023/10/15 14:28:31;;;;;;;1.40;0.40;;;20.20;75.70;;;;;;10858709;32;20023;-70
2023/10/15 14:34:34;;;;;;;0.50;0.50;;;20.20;75.80;;;;;;10811491;33;20062;-71
2023/10/15 14:40:38;;;;;;;0.52;0.52;;;20.20;75.90;;;;;;10822586;33;20024;-72
2023/10/15 14:46:41;;;;;;;0.73;0.57;;;20.20;75.00;;;;;;10833944;27;20035;-70
2023/10/15 14:52:43;;;;;;;0.40;0.40;;;20.20;74.50;;;;;;10855451;32;20318;-70
2023/10/15 14:58:45;;;;;;;0.50;0.50;;;20.20;74.90;;;;;;10847304;32;20019;-70
2023/10/15 15:04:47;;;;;;;2.70;0.35;;;20.00;74.40;;;;;;10828405;32;20128;-71
2023/10/15 15:10:49;;;;;;;0.30;0.30;;;19.90;74.90;;;;;;10819427;32;20342;-70
2023/10/15 15:16:52;;;;;;;0.40;0.40;;;19.90;74.60;;;;;;10820540;33;20063;-70
2023/10/15 15:22:54;;;;;;;2.78;1.00;;;19.70;74.30;;;;;;10854258;32;20394;-70
2023/10/15 15:28:57;;;;;;;1.58;0.62;;;19.60;74.80;;;;;;10861065;32;20012;-71
2023/10/15 15:34:59;;;;;;;2.45;0.47;;;19.50;75.00;;;;;;10857579;32;20019;-71
2023/10/15 15:41:05;;;;;;;0.70;0.65;;;19.50;75.90;;;;;;10856611;32;20028;-70
2023/10/15 15:47:08;;;;;;;13.70;0.75;;;19.50;75.50;;;;;;10855191;32;20058;-69
2023/10/15 15:53:54;;;;;;;0.43;0.43;;;19.30;75.70;;;;;;10855767;32;20012;-70
2023/10/15 15:59:59;;;;;;;0.70;0.70;;;19.30;75.70;;;;;;10853925;32;20042;-72
2023/10/15 16:06:02;;;;;;;0.55;0.50;;;19.20;76.70;;;;;;10862478;32;20333;-70
2023/10/15 16:12:04;;;;;;;9.40;1.00;;;19.20;77.90;;;;;;10866464;32;20050;-71
2023/10/15 16:18:07;;;;;;;1.52;1.00;;;19.30;78.30;;;;;;10855083;32;20051;-71
2023/10/15 16:24:10;;;;;;;0.80;0.80;;;19.20;77.60;;;;;;10798894;32;20054;-72
2023/10/15 16:30:13;;;;;;;1.48;0.90;;;19.00;78.30;;;;;;10811344;33;20040;-72
2023/10/15 16:36:15;;;;;;;0.50;0.50;;;18.80;77.30;;;;;;10807839;33;20035;-70
2023/10/15 16:42:17;;;;;;;1.95;0.62;;;18.70;78.30;;;;;;10826826;32;20054;-70
2023/10/15 16:48:20;;;;;;;0.70;0.70;;;18.80;78.20;;;;;;10813545;32;20449;-69
2023/10/15 16:54:22;;;;;;;1.77;0.98;;;18.70;78.40;;;;;;10824193;32;20067;-70
2023/10/15 17:00:24;;;;;;;1.85;0.88;;;18.60;78.40;;;;;;10823770;32;20172;-70
2023/10/15 17:06:27;;;;;;;1.87;0.70;;;18.60;78.80;;;;;;10844819;32;20024;-70
2023/10/15 17:12:48;;;;;;;0.70;0.70;;;18.50;79.00;;;;;;10864554;32;20023;-70
2023/10/15 17:18:50;;;;;;;0.70;0.70;;;18.40;79.60;;;;;;10863329;32;20341;-71
2023/10/15 17:24:52;;;;;;;0.75;0.75;;;18.30;79.90;;;;;;10864625;32;20085;-71
2023/10/15 17:30:55;;;;;;;0.60;0.50;;;18.30;80.30;;;;;;10864274;32;20431;-70
2023/10/15 17:37:03;;;;;;;0.68;0.40;;;18.20;80.40;;;;;;10862859;32;20032;-70
2023/10/15 17:43:05;;;;;;;0.93;0.85;;;18.30;81.00;;;;;;10864576;32;20042;-70
2023/10/15 17:49:09;;;;;;;0.60;0.50;;;18.30;80.80;;;;;;10863543;32;20443;-70
2023/10/15 17:55:31;;;;;;;1.87;0.70;;;18.20;81.40;;;;;;10863295;32;20063;-70
2023/10/15 18:01:34;;;;;;;0.60;0.50;;;18.20;81.50;;;;;;10863376;32;20298;-70
2023/10/15 18:07:36;;;;;;;3.90;0.80;;;18.30;82.00;;;;;;10863002;32;20046;-71
2023/10/15 18:13:43;;;;;;;2.35;0.60;;;18.30;82.20;;;;;;10862702;32;20058;-70
2023/10/15 18:19:45;;;;;;;1.37;0.85;;;18.30;82.30;;;;;;10862500;32;20053;-70
2023/10/15 18:25:48;;;;;;;0.52;0.50;;;18.30;82.70;;;;;;10861633;32;20032;-71
2023/10/15 18:31:50;;;;;;;0.50;0.50;;;18.30;82.80;;;;;;10862297;32;20015;-71
2023/10/15 18:38:09;;;;;;;0.70;0.70;;;18.30;82.70;;;;;;10862151;32;20081;-70
2023/10/15 18:44:11;;;;;;;1.10;0.90;;;18.30;82.90;;;;;;10862052;32;20019;-71
2023/10/15 18:50:14;;;;;;;1.37;0.70;;;18.30;83.20;;;;;;10861719;32;20027;-72
2023/10/15 18:56:16;;;;;;;1.10;0.80;;;18.30;83.10;;;;;;10861445;32;20054;-71
2023/10/15 19:02:17;;;;;;;0.62;0.50;;;18.30;82.70;;;;;;10861488;32;20431;-72
2023/10/15 19:08:20;;;;;;;0.50;0.50;;;18.20;82.90;;;;;;10840076;32;20050;-71
2023/10/15 19:14:22;;;;;;;0.43;0.43;;;18.20;82.80;;;;;;10819986;33;20086;-72
2023/10/15 19:20:25;;;;;;;0.80;0.75;;;18.30;82.70;;;;;;10803882;33;20055;-72
2023/10/15 19:26:27;;;;;;;0.50;0.50;;;18.30;82.80;;;;;;10802578;32;20066;-71
2023/10/15 19:32:32;;;;;;;0.52;0.52;;;18.30;83.10;;;;;;10860816;32;20046;-72
2023/10/15 19:38:34;;;;;;;0.98;0.65;;;18.30;83.10;;;;;;10860145;32;20058;-72
2023/10/15 19:44:37;;;;;;;0.37;0.37;;;18.30;82.80;;;;;;10862122;32;20032;-72
2023/10/15 19:50:39;;;;;;;0.30;0.30;;;18.20;82.60;;;;;;10837832;32;20053;-72
2023/10/15 19:56:43;;;;;;;0.62;0.62;;;18.20;82.50;;;;;;10861451;32;20341;-72
2023/10/15 20:02:46;;;;;;;0.60;0.60;;;18.20;82.30;;;;;;10863007;32;20028;-72
2023/10/15 20:08:48;;;;;;;1.02;0.80;;;18.10;82.20;;;;;;10862200;32;20035;-72
2023/10/15 20:14:51;;;;;;;1.60;0.90;;;18.00;82.70;;;;;;10848272;32;20039;-72
2023/10/15 20:20:53;;;;;;;0.90;0.70;;;18.00;82.80;;;;;;10859142;32;20077;-72
2023/10/15 20:26:55;;;;;;;2.70;1.23;;;17.90;82.50;;;;;;10861563;32;20032;-72
2023/10/15 20:32:59;;;;;;;0.60;0.60;;;17.80;82.50;;;;;;10847848;32;20036;-72
2023/10/15 20:39:06;;;;;;;0.65;0.55;;;17.80;82.40;;;;;;10861310;32;20042;-72
2023/10/15 20:45:10;;;;;;;0.62;0.62;;;17.80;82.90;;;;;;10860924;32;20337;-72
2023/10/15 20:51:12;;;;;;;0.80;0.68;;;17.80;82.90;;;;;;10864455;32;20027;-72
2023/10/15 20:57:15;;;;;;;0.73;0.73;;;17.80;82.40;;;;;;10831867;32;20422;-72
2023/10/15 21:03:17;;;;;;;0.70;0.70;;;17.80;82.20;;;;;;10822048;32;20062;-72
2023/10/15 21:09:21;;;;;;;0.98;0.70;;;17.70;82.20;;;;;;10825402;33;20405;-72
2023/10/15 21:15:24;;;;;;;0.85;0.85;;;17.60;82.10;;;;;;10826460;32;20066;-72
2023/10/15 21:21:26;;;;;;;0.60;0.60;;;17.50;82.00;;;;;;10823254;33;20326;-72
2023/10/15 21:27:43;;;;;;;1.83;0.60;;;17.50;82.20;;;;;;10822763;33;20032;-72
2023/10/15 21:33:46;;;;;;;0.70;0.70;;;17.50;82.50;;;;;;10817053;32;20341;-72
2023/10/15 21:39:48;;;;;;;0.50;0.50;;;17.50;82.80;;;;;;10864071;32;20042;-72
2023/10/15 21:45:51;;;;;;;0.62;0.62;;;17.50;82.70;;;;;;10863939;32;20039;-72
2023/10/15 21:51:53;;;;;;;0.50;0.50;;;17.40;82.30;;;;;;10864027;32;20097;-72
2023/10/15 21:57:56;;;;;;;0.75;0.75;;;17.30;82.80;;;;;;10863655;32;20016;-72
2023/10/15 22:04:13;;;;;;;0.60;0.60;;;17.20;83.30;;;;;;10863138;32;20385;-72
2023/10/15 22:10:16;;;;;;;1.10;0.60;;;17.20;83.60;;;;;;10863601;32;20038;-71
2023/10/15 22:16:19;;;;;;;0.60;0.60;;;17.20;83.50;;;;;;10862164;32;20047;-72
2023/10/15 22:22:24;;;;;;;0.52;0.52;;;17.20;83.50;;;;;;10863506;32;20020;-71
2023/10/15 22:28:26;;;;;;;0.40;0.40;;;17.20;83.80;;;;;;10863305;32;20440;-71
2023/10/15 22:34:28;;;;;;;0.77;0.77;;;17.00;84.00;;;;;;10861725;32;20053;-71
2023/10/15 22:40:30;;;;;;;0.68;0.68;;;16.80;84.20;;;;;;10862733;32;20390;-71
2023/10/15 22:46:33;;;;;;;2.20;0.80;;;16.70;84.80;;;;;;10865703;27;20054;-71
2023/10/15 22:52:38;;;;;;;0.60;0.60;;;16.80;84.40;;;;;;10862290;32;20034;-72
2023/10/15 22:58:41;;;;;;;0.50;0.50;;;16.70;84.10;;;;;;10861666;32;20020;-72
2023/10/15 23:04:43;;;;;;;0.60;0.60;;;16.50;84.10;;;;;;10858889;32;20016;-72
2023/10/15 23:10:46;;;;;;;0.60;0.60;;;16.60;84.00;;;;;;10861409;32;20015;-72
2023/10/15 23:16:48;;;;;;;0.40;0.40;;;16.70;83.90;;;;;;10836100;32;20027;-72
2023/10/15 23:22:56;;;;;;;2.47;0.70;;;16.70;83.90;;;;;;10862341;32;20046;-72
2023/10/15 23:28:58;;;;;;;0.65;0.65;;;16.70;83.70;;;;;;10862171;32;20053;-72
2023/10/15 23:35:00;;;;;;;1.15;0.70;;;16.70;83.50;;;;;;10861393;32;20397;-72
2023/10/15 23:41:02;;;;;;;0.57;0.57;;;16.80;83.40;;;;;;10848003;32;20062;-72
2023/10/15 23:47:16;;;;;;;0.70;0.70;;;16.70;83.00;;;;;;10861394;32;20047;-72
2023/10/15 23:53:30;;;;;;;0.57;0.47;;;16.60;82.80;;;;;;10860476;32;20042;-72
2023/10/15 23:59:32;;;;;;;0.75;0.70;;;16.40;82.80;;;;;;10846592;32;20050;-72
